Time;durP1;ratioP1;P1;durP2;ratioP2;P2;SDS_P1;SDS_P2;PMS_P1;PMS_P2;Temp;Humidity;BMP_temperature;BMP_pressure;BME280_temperature;BME280_humidity;BME280_pressure;Samples;Min_cycle;Max_cycle;Signal;HPM_P1;HPM_P2
2024/01/17 00:00:22;;;;;;;;;;;;;;;15.74;40.47;101135.72;4960699;29;1109;-53
2024/01/17 00:02:47;;;;;;;;;;;;;;;15.42;41.25;101129.34;4960008;29;1116;-54
2024/01/17 00:05:13;;;;;;;;;;;;;;;16.85;38.43;101137.97;4960210;29;1128;-53
2024/01/17 00:07:38;;;;;;;;;;;;;;;17.09;37.95;101135.63;4960476;29;1001;-53
2024/01/17 00:10:04;;;;;;;;;;;;;;;16.16;39.68;101127.88;4960487;29;1092;-54
2024/01/17 00:12:30;;;;;;;;;;;;;;;15.63;40.88;101125.75;4959709;29;998;-52
2024/01/17 00:14:56;;;;;;;;;;;;;;;15.45;41.52;101142.53;4960034;29;2563;-53
2024/01/17 00:17:21;;;;;;;;;;;;;;;16.92;38.44;101144.06;4959399;29;1033;-54
2024/01/17 00:19:47;;;;;;;;;;;;;;;17.45;37.33;101138.50;4959894;29;1910;-54
2024/01/17 00:22:15;;;;;;;;;;;;;;;16.29;39.58;101148.59;4960207;29;1076;-54
2024/01/17 00:24:40;;;;;;;;;;;;;;;15.75;40.87;101144.75;4960029;28;989;-52
2024/01/17 00:27:06;;;;;;;;;;;;;;;15.53;40.99;101151.13;4957209;29;1069;-54
2024/01/17 00:29:31;;;;;;;;;;;;;;;16.54;39.28;101145.19;4943043;29;1066;-53
2024/01/17 00:31:57;;;;;;;;;;;;;;;17.67;36.98;101133.88;4959893;29;1054;-55
2024/01/17 00:34:23;;;;;;;;;;;;;;;16.54;38.80;101131.47;4959764;29;999;-55
2024/01/17 00:36:49;;;;;;;;;;;;;;;15.94;40.22;101123.31;4942398;29;1093;-54
2024/01/17 00:39:16;;;;;;;;;;;;;;;15.55;41.17;101118.78;4959471;29;1907;-54
2024/01/17 00:41:42;;;;;;;;;;;;;;;16.05;39.94;101121.50;4959820;29;1025;-54
2024/01/17 00:44:07;;;;;;;;;;;;;;;17.40;37.43;101122.00;4951717;29;2252;-55
2024/01/17 00:46:33;;;;;;;;;;;;;;;16.95;38.18;101117.97;4955958;29;1037;-53
2024/01/17 00:48:59;;;;;;;;;;;;;;;16.12;39.69;101113.03;4959310;29;1121;-52
2024/01/17 00:51:24;;;;;;;;;;;;;;;15.66;40.71;101107.94;4959602;29;1081;-52
2024/01/17 00:53:51;;;;;;;;;;;;;;;15.49;41.12;101113.53;4959201;29;1129;-52
2024/01/17 00:56:17;;;;;;;;;;;;;;;17.09;37.86;101108.16;4959434;29;1104;-54
2024/01/17 00:58:43;;;;;;;;;;;;;;;17.07;37.69;101106.78;4959461;29;1985;-53
2024/01/17 01:01:09;;;;;;;;;;;;;;;16.10;39.93;101099.56;4958745;29;1050;-54
2024/01/17 01:03:34;;;;;;;;;;;;;;;15.64;40.83;101093.66;4958915;29;1025;-53
2024/01/17 01:06:00;;;;;;;;;;;;;;;15.43;41.44;101087.16;4959071;29;1070;-53
2024/01/17 01:08:25;;;;;;;;;;;;;;;16.89;38.52;101086.09;4959476;29;1213;-53
2024/01/17 01:10:51;;;;;;;;;;;;;;;17.49;37.05;101080.22;4959463;29;1145;-51
2024/01/17 01:13:17;;;;;;;;;;;;;;;16.27;39.25;101073.91;4958056;29;2446;-53
2024/01/17 01:15:42;;;;;;;;;;;;;;;15.80;40.64;101064.53;4953844;29;1025;-54
2024/01/17 01:18:08;;;;;;;;;;;;;;;15.53;40.88;101060.69;4958876;29;1964;-53
2024/01/17 01:20:33;;;;;;;;;;;;;;;16.95;38.30;101065.78;4958789;29;1108;-53
2024/01/17 01:22:59;;;;;;;;;;;;;;;17.14;37.69;101068.88;4958617;29;1058;-52
2024/01/17 01:25:26;;;;;;;;;;;;;;;16.11;39.89;101059.28;4959149;29;1058;-52
2024/01/17 01:27:51;;;;;;;;;;;;;;;15.66;40.95;101056.69;4958717;29;1148;-54
2024/01/17 01:30:17;;;;;;;;;;;;;;;15.42;41.27;101058.09;4958338;29;1088;-54
2024/01/17 01:32:42;;;;;;;;;;;;;;;16.77;38.61;101062.41;4958991;29;1122;-54
2024/01/17 01:35:08;;;;;;;;;;;;;;;17.54;36.76;101058.25;4958663;29;1147;-53
2024/01/17 01:37:33;;;;;;;;;;;;;;;16.38;39.05;101053.66;4958527;28;1153;-50
2024/01/17 01:39:59;;;;;;;;;;;;;;;15.85;40.53;101061.81;4958945;29;1979;-53
2024/01/17 01:42:24;;;;;;;;;;;;;;;15.45;41.00;101058.41;4958423;29;1049;-51
2024/01/17 01:44:50;;;;;;;;;;;;;;;16.39;39.22;101061.63;4945884;29;2416;-54
2024/01/17 01:47:16;;;;;;;;;;;;;;;17.56;37.07;101062.38;4958391;29;1089;-52
2024/01/17 01:49:41;;;;;;;;;;;;;;;16.53;38.71;101061.19;4941756;29;1026;-54
2024/01/17 01:52:07;;;;;;;;;;;;;;;15.88;40.22;101061.31;4958675;29;1137;-53
2024/01/17 01:54:32;;;;;;;;;;;;;;;15.55;40.96;101058.50;4958083;29;1220;-53
2024/01/17 01:56:59;;;;;;;;;;;;;;;16.14;39.96;101059.56;4958663;29;1205;-52
2024/01/17 01:59:24;;;;;;;;;;;;;;;17.49;36.93;101055.47;4938840;29;1907;-52
2024/01/17 02:01:50;;;;;;;;;;;;;;;16.56;38.65;101044.16;4958035;29;1068;-52
2024/01/17 02:04:15;;;;;;;;;;;;;;;15.88;40.36;101050.34;4958401;29;994;-52
2024/01/17 02:06:42;;;;;;;;;;;;;;;15.67;40.92;101039.16;4957858;29;1112;-53
2024/01/17 02:09:08;;;;;;;;;;;;;;;17.22;37.53;101051.88;4958296;29;1132;-53
2024/01/17 02:11:34;;;;;;;;;;;;;;;16.67;38.57;101051.34;4941386;29;1087;-51
2024/01/17 02:13:59;;;;;;;;;;;;;;;15.91;39.96;101044.31;4940586;29;1842;-53
2024/01/17 02:16:25;;;;;;;;;;;;;;;15.51;41.10;101042.84;4958020;29;1057;-53
2024/01/17 02:18:51;;;;;;;;;;;;;;;16.75;38.71;101033.56;4957753;29;1966;-53
2024/01/17 02:21:16;;;;;;;;;;;;;;;17.44;37.01;101035.13;4957673;29;1073;-53
2024/01/17 02:23:42;;;;;;;;;;;;;;;16.30;39.35;101037.69;4940580;29;1138;-54
2024/01/17 02:26:08;;;;;;;;;;;;;;;15.77;40.17;101032.09;4958470;29;1098;-53
2024/01/17 02:28:33;;;;;;;;;;;;;;;15.41;41.02;101018.91;4958289;29;1053;-53
2024/01/17 02:30:59;;;;;;;;;;;;;;;16.75;38.44;101031.63;4957989;29;1095;-53
2024/01/17 02:33:24;;;;;;;;;;;;;;;17.62;36.58;101030.19;4957923;29;974;-54
2024/01/17 02:35:50;;;;;;;;;;;;;;;16.42;38.80;101024.59;4957659;29;1185;-53
2024/01/17 02:38:16;;;;;;;;;;;;;;;15.78;40.31;101026.38;4944733;29;1902;-53
2024/01/17 02:40:41;;;;;;;;;;;;;;;15.52;41.14;101031.63;4957643;29;1132;-53
2024/01/17 02:43:07;;;;;;;;;;;;;;;16.77;38.55;101034.09;4957281;29;1178;-53
2024/01/17 02:45:32;;;;;;;;;;;;;;;17.37;36.94;101037.31;4957763;29;2570;-53
2024/01/17 02:47:58;;;;;;;;;;;;;;;16.22;39.38;101041.78;4957905;28;1042;-52
2024/01/17 02:50:24;;;;;;;;;;;;;;;15.71;40.55;101031.22;4961163;29;1085;-53
2024/01/17 02:52:49;;;;;;;;;;;;;;;15.47;40.99;101028.81;4961909;29;1064;-51
2024/01/17 02:55:18;;;;;;;;;;;;;;;16.56;39.02;101030.44;4961270;29;1006;-53
2024/01/17 02:57:43;;;;;;;;;;;;;;;17.60;36.87;101030.47;4961584;29;1116;-54
2024/01/17 03:00:09;;;;;;;;;;;;;;;16.43;39.08;101032.56;4961707;29;1982;-54
2024/01/17 03:02:35;;;;;;;;;;;;;;;15.84;40.05;101028.06;4961527;29;1133;-53
2024/01/17 03:05:01;;;;;;;;;;;;;;;15.56;40.90;101029.19;4948987;29;1101;-53
2024/01/17 03:07:26;;;;;;;;;;;;;;;16.88;38.07;101026.72;4961005;29;1022;-53
2024/01/17 03:09:52;;;;;;;;;;;;;;;17.21;37.52;101027.41;4961460;29;1001;-53
2024/01/17 03:12:19;;;;;;;;;;;;;;;16.10;39.54;101020.03;4961070;29;1081;-53
2024/01/17 03:14:45;;;;;;;;;;;;;;;15.67;40.73;101014.47;4954906;28;2617;-51
2024/01/17 03:17:12;;;;;;;;;;;;;;;15.47;40.97;101028.00;4961218;29;1022;-54
2024/01/17 03:19:38;;;;;;;;;;;;;;;17.08;37.65;101035.06;4960820;29;1910;-51
2024/01/17 03:22:04;;;;;;;;;;;;;;;17.00;37.72;101023.75;4961233;29;1065;-53
2024/01/17 03:24:29;;;;;;;;;;;;;;;15.94;39.78;101021.84;4961103;29;1081;-53
2024/01/17 03:26:55;;;;;;;;;;;;;;;15.58;40.47;101029.75;4961338;29;1049;-53
2024/01/17 03:29:20;;;;;;;;;;;;;;;16.18;39.73;101026.94;4961320;29;1200;-54
2024/01/17 03:31:47;;;;;;;;;;;;;;;17.45;36.88;101027.72;4960733;29;1026;-54
2024/01/17 03:34:12;;;;;;;;;;;;;;;16.52;38.53;101030.16;4943730;29;1141;-54
2024/01/17 03:36:38;;;;;;;;;;;;;;;15.80;40.02;101023.38;4960531;29;1085;-54
2024/01/17 03:39:04;;;;;;;;;;;;;;;15.59;40.75;101020.44;4961173;29;1902;-54
2024/01/17 03:41:29;;;;;;;;;;;;;;;16.39;39.35;101027.88;4960676;29;1049;-54
2024/01/17 03:43:56;;;;;;;;;;;;;;;17.53;36.75;101027.19;4953462;29;1804;-50
2024/01/17 03:46:22;;;;;;;;;;;;;;;16.40;38.99;101035.03;4954798;29;1089;-52
2024/01/17 03:48:47;;;;;;;;;;;;;;;15.84;39.90;101033.56;4961269;29;1062;-52
2024/01/17 03:51:13;;;;;;;;;;;;;;;15.49;40.89;101025.84;4960931;29;1151;-52
2024/01/17 03:53:38;;;;;;;;;;;;;;;16.83;37.96;101027.56;4961036;29;1185;-53
2024/01/17 03:56:04;;;;;;;;;;;;;;;17.57;36.54;101035.69;4960710;29;1002;-54
2024/01/17 03:58:30;;;;;;;;;;;;;;;16.38;39.02;101037.19;4960107;29;1934;-52
2024/01/17 04:00:55;;;;;;;;;;;;;;;15.82;39.84;101043.97;4959303;28;1100;-54
2024/01/17 04:03:21;;;;;;;;;;;;;;;15.54;40.56;101042.31;4960609;29;1165;-53
2024/01/17 04:05:46;;;;;;;;;;;;;;;16.83;38.15;101043.19;4960261;29;1093;-53
2024/01/17 04:08:12;;;;;;;;;;;;;;;17.57;36.37;101035.69;4959838;29;1097;-54
2024/01/17 04:10:37;;;;;;;;;;;;;;;16.40;38.76;101043.28;4960245;29;1050;-54
2024/01/17 04:13:03;;;;;;;;;;;;;;;15.76;40.27;101041.41;4960315;29;1078;-54
2024/01/17 04:15:29;;;;;;;;;;;;;;;15.58;40.67;101043.44;4953806;29;2093;-53
2024/01/17 04:17:54;;;;;;;;;;;;;;;16.26;39.32;101056.63;4958397;29;1041;-54
2024/01/17 04:20:20;;;;;;;;;;;;;;;17.53;36.54;101064.81;4951383;29;1910;-53
2024/01/17 04:22:46;;;;;;;;;;;;;;;16.60;38.19;101064.50;4960147;29;1200;-50
2024/01/17 04:25:11;;;;;;;;;;;;;;;15.95;39.86;101056.41;4960453;29;1243;-52
2024/01/17 04:27:37;;;;;;;;;;;;;;;15.53;40.50;101057.13;4959728;29;1104;-53
2024/01/17 04:30:03;;;;;;;;;;;;;;;16.47;39.00;101052.09;4959722;29;1108;-51
2024/01/17 04:32:29;;;;;;;;;;;;;;;17.42;36.83;101061.25;4959632;29;1049;-53
2024/01/17 04:34:55;;;;;;;;;;;;;;;16.27;39.08;101058.28;4959875;29;1204;-54
2024/01/17 04:37:21;;;;;;;;;;;;;;;15.72;40.22;101052.91;4959907;29;1088;-53
2024/01/17 04:39:47;;;;;;;;;;;;;;;15.41;40.66;101065.50;4960188;29;1910;-55
2024/01/17 04:42:12;;;;;;;;;;;;;;;16.86;37.80;101070.13;4959939;29;1029;-56
2024/01/17 04:44:39;;;;;;;;;;;;;;;17.38;36.90;101060.97;4958487;29;2194;-52
2024/01/17 04:47:04;;;;;;;;;;;;;;;16.26;38.91;101073.09;4959390;29;1229;-54
2024/01/17 04:49:30;;;;;;;;;;;;;;;15.78;40.22;101067.50;4959307;29;1237;-53
2024/01/17 04:51:56;;;;;;;;;;;;;;;15.43;40.85;101071.56;4958866;29;1121;-52
2024/01/17 04:54:22;;;;;;;;;;;;;;;16.99;37.60;101077.09;4959243;29;1272;-54
2024/01/17 04:56:47;;;;;;;;;;;;;;;17.20;36.93;101075.22;4958180;29;1528;-50
2024/01/17 04:59:13;;;;;;;;;;;;;;;16.18;38.96;101076.31;4959304;29;1979;-47
2024/01/17 05:03:35;;;;;;;;;;;;;;;15.44;40.58;101080.59;5031423;27;2057364;-50
2024/01/17 05:06:01;;;;;;;;;;;;;;;16.58;38.26;101084.00;5074981;28;1038;-53
2024/01/17 05:08:27;;;;;;;;;;;;;;;17.62;36.27;101085.19;5072878;28;1059;-56
2024/01/17 05:10:53;;;;;;;;;;;;;;;16.49;38.44;101087.50;5073027;28;937;-56
2024/01/17 05:13:18;;;;;;;;;;;;;;;15.91;39.71;101085.44;5072882;28;2637;-57
2024/01/17 05:15:44;;;;;;;;;;;;;;;15.60;40.05;101093.38;5072560;28;1112;-50
2024/01/17 05:18:09;;;;;;;;;;;;;;;16.37;38.71;101098.69;5064750;28;1249;-55
2024/01/17 05:20:35;;;;;;;;;;;;;;;17.57;36.23;101109.94;5072956;28;845;-53
2024/01/17 05:23:01;;;;;;;;;;;;;;;16.89;37.64;101100.66;5072703;28;1910;-53
2024/01/17 05:25:26;;;;;;;;;;;;;;;16.26;39.06;101108.78;5073136;28;1036;-58
2024/01/17 05:27:52;;;;;;;;;;;;;;;15.78;40.00;101110.53;5072911;28;1099;-55
2024/01/17 05:30:18;;;;;;;;;;;;;;;16.45;38.79;101111.09;5072795;28;1039;-52
2024/01/17 05:32:44;;;;;;;;;;;;;;;16.74;37.79;101112.34;5072590;28;1101;-54
2024/01/17 05:35:10;;;;;;;;;;;;;;;15.85;39.98;101111.16;5073301;28;1086;-51
2024/01/17 05:37:38;;;;;;;;;;;;;;;17.54;36.47;101108.53;5072735;28;1035;-53
2024/01/17 05:40:04;;;;;;;;;;;;;;;17.31;36.74;101120.06;5072829;28;1033;-52
2024/01/17 05:42:30;;;;;;;;;;;;;;;16.30;38.97;101129.09;5072106;28;1905;-56
2024/01/17 05:44:56;;;;;;;;;;;;;;;15.89;39.56;101118.63;5071976;28;2481;-54
2024/01/17 05:47:21;;;;;;;;;;;;;;;17.40;36.89;101122.00;5072623;28;1282;-53
2024/01/17 05:49:47;;;;;;;;;;;;;;;16.41;38.79;101121.75;5072636;28;1040;-54
2024/01/17 05:52:12;;;;;;;;;;;;;;;16.58;38.58;101124.34;5069940;28;1071;-53
2024/01/17 05:54:38;;;;;;;;;;;;;;;17.54;36.45;101130.53;5066685;28;1033;-55
2024/01/17 05:57:04;;;;;;;;;;;;;;;16.40;38.78;101131.91;5071236;28;845;-54
2024/01/17 05:59:30;;;;;;;;;;;;;;;16.99;37.94;101138.34;5071409;28;1091;-53
2024/01/17 06:01:55;;;;;;;;;;;;;;;17.59;36.58;101138.00;5069356;28;1901;-55
2024/01/17 06:04:21;;;;;;;;;;;;;;;16.41;38.76;101141.81;5071777;28;1078;-55
2024/01/17 06:06:46;;;;;;;;;;;;;;;16.88;37.98;101139.34;5071400;28;1047;-57
2024/01/17 06:09:14;;;;;;;;;;;;;;;17.90;36.08;101143.53;5071949;28;1087;-55
2024/01/17 06:11:39;;;;;;;;;;;;;;;16.65;38.31;101152.41;5071972;28;1047;-57
2024/01/17 06:14:05;;;;;;;;;;;;;;;16.18;39.47;101158.63;5063722;28;2429;-54
2024/01/17 06:16:30;;;;;;;;;;;;;;;17.23;37.46;101157.94;5058686;28;977;-57
2024/01/17 06:18:59;;;;;;;;;;;;;;;16.37;39.00;101162.63;5058838;28;1151;-54
2024/01/17 06:21:25;;;;;;;;;;;;;;;17.06;37.76;101147.16;5051037;28;1961;-54
2024/01/17 06:23:51;;;;;;;;;;;;;;;18.17;35.54;101153.50;5058728;28;1147;-55
2024/01/17 06:26:17;;;;;;;;;;;;;;;16.82;38.09;101154.16;5058352;28;1036;-58
2024/01/17 06:28:42;;;;;;;;;;;;;;;16.31;39.17;101152.69;5050619;28;1306;-56
2024/01/17 06:31:08;;;;;;;;;;;;;;;17.98;36.11;101169.72;5067547;28;820;-55
2024/01/17 06:33:34;;;;;;;;;;;;;;;16.69;38.44;101167.25;5056541;28;948;-54
2024/01/17 06:35:59;;;;;;;;;;;;;;;16.98;38.02;101164.13;5055284;28;979;-57
2024/01/17 06:38:25;;;;;;;;;;;;;;;17.35;37.05;101154.97;5058858;28;985;-56
2024/01/17 06:40:50;;;;;;;;;;;;;;;16.50;38.88;101161.34;5057889;28;984;-56
2024/01/17 06:43:16;;;;;;;;;;;;;;;17.19;37.75;101156.00;5058216;28;2393;-56
2024/01/17 06:45:42;;;;;;;;;;;;;;;17.09;37.78;101162.28;5057712;28;837;-56
2024/01/17 06:48:08;;;;;;;;;;;;;;;16.46;39.08;101165.72;5058221;28;1048;-55
2024/01/17 06:50:33;;;;;;;;;;;;;;;17.48;36.86;101152.81;5058105;28;1178;-54
2024/01/17 06:52:59;;;;;;;;;;;;;;;17.13;37.64;101160.66;5040605;28;1044;-55
2024/01/17 06:55:25;;;;;;;;;;;;;;;16.36;39.04;101150.00;5057828;28;1202;-56
2024/01/17 06:57:51;;;;;;;;;;;;;;;17.62;36.77;101152.00;5057576;28;1091;-55
2024/01/17 07:00:17;;;;;;;;;;;;;;;17.88;35.98;101149.31;5057683;28;997;-55
2024/01/17 07:02:43;;;;;;;;;;;;;;;16.80;38.32;101159.06;5057205;28;1968;-55
2024/01/17 07:05:09;;;;;;;;;;;;;;;16.41;39.04;101152.78;5057509;28;1227;-54
2024/01/17 07:07:34;;;;;;;;;;;;;;;17.79;36.64;101148.19;5057582;28;1063;-54
2024/01/17 07:10:00;;;;;;;;;;;;;;;17.07;37.32;101159.81;5057540;28;975;-54
2024/01/17 07:12:25;;;;;;;;;;;;;;;16.53;38.14;101160.81;5057939;28;1029;-49
2024/01/17 07:14:54;;;;;;;;;;;;;;;16.14;38.98;101165.72;5057452;28;2687;-54
2024/01/17 07:17:19;;;;;;;;;;;;;;;15.82;39.63;101167.38;5058243;28;1206;-57
2024/01/17 07:19:45;;;;;;;;;;;;;;;15.65;40.05;101161.13;5057074;28;1071;-53
2024/01/17 07:22:10;;;;;;;;;;;;;;;17.29;36.64;101161.53;5046208;28;1910;-51
2024/01/17 07:24:36;;;;;;;;;;;;;;;16.35;38.55;101164.81;5056676;28;1004;-57
2024/01/17 07:27:02;;;;;;;;;;;;;;;15.80;39.82;101157.75;5056007;28;1129;-58
2024/01/17 07:29:28;;;;;;;;;;;;;;;15.62;40.24;101156.16;5043338;28;1281;-54
2024/01/17 07:31:53;;;;;;;;;;;;;;;15.74;40.12;101146.69;5057047;28;1045;-54
2024/01/17 07:34:19;;;;;;;;;;;;;;;17.28;36.92;101146.16;5051257;28;1213;-53
2024/01/17 07:36:44;;;;;;;;;;;;;;;16.17;38.79;101151.50;5049685;28;1282;-56
2024/01/17 07:39:14;;;;;;;;;;;;;;;15.72;39.75;101143.38;5055580;28;1025;-52
2024/01/17 07:41:40;;;;;;;;;;;;;;;15.57;40.29;101148.69;5057023;28;1914;-50
2024/01/17 07:44:06;;;;;;;;;;;;;;;15.30;40.61;101154.97;5057111;28;2411;-47
2024/01/17 07:46:32;;;;;;;;;;;;;;;15.42;40.66;101151.25;5051472;28;1119;-52
2024/01/17 07:48:58;;;;;;;;;;;;;;;17.23;37.21;101157.94;5048768;28;1004;-46
2024/01/17 07:51:23;;;;;;;;;;;;;;;16.19;39.04;101147.41;5056167;28;1167;-49
2024/01/17 07:53:49;;;;;;;;;;;;;;;15.66;40.08;101149.88;5056654;28;992;-50
2024/01/17 07:56:15;;;;;;;;;;;;;;;15.50;40.29;101151.66;5056811;28;996;-53
2024/01/17 07:58:41;;;;;;;;;;;;;;;16.55;38.54;101157.81;5054010;28;1032;-54
2024/01/17 08:01:06;;;;;;;;;;;;;;;17.17;36.97;101149.97;5057048;28;1044;-54
2024/01/17 08:03:32;;;;;;;;;;;;;;;16.02;39.21;101158.50;5056468;28;1988;-52
2024/01/17 08:05:58;;;;;;;;;;;;;;;16.79;38.22;101146.44;5056557;28;1183;-54
2024/01/17 08:08:23;;;;;;;;;;;;;;;17.57;36.14;101142.94;5056735;28;1000;-54
2024/01/17 08:10:49;;;;;;;;;;;;;;;16.39;38.65;101143.97;5067157;28;1271;-52
2024/01/17 08:13:14;;;;;;;;;;;;;;;16.91;37.92;101139.69;5068052;28;2393;-54
2024/01/17 08:15:41;;;;;;;;;;;;;;;16.75;38.10;101141.47;5056267;28;1114;-55
2024/01/17 08:18:08;;;;;;;;;;;;;;;16.06;39.52;101134.09;5056332;28;1072;-55
2024/01/17 08:20:34;;;;;;;;;;;;;;;17.73;36.22;101133.63;5056726;28;1052;-59
2024/01/17 08:22:59;;;;;;;;;;;;;;;16.71;38.26;101123.88;5049142;28;1968;-46
2024/01/17 08:25:26;;;;;;;;;;;;;;;16.03;39.74;101127.25;5052889;28;1044;-50
2024/01/17 08:27:54;;;;;;;;;;;;;;;15.80;39.95;101130.31;5056774;28;1028;-47
2024/01/17 08:30:19;;;;;;;;;;;;;;;16.30;39.14;101128.25;5056045;28;1087;-46
2024/01/17 08:32:45;;;;;;;;;;;;;;;17.83;35.92;101121.81;5056047;28;1082;-48
2024/01/17 08:35:11;;;;;;;;;;;;;;;16.63;38.15;101132.59;5056040;28;909;-51
2024/01/17 08:37:36;;;;;;;;;;;;;;;16.16;39.37;101119.66;5054723;28;1014;-55
2024/01/17 08:40:03;;;;;;;;;;;;;;;15.78;39.90;101116.84;5055639;28;1102;-54
2024/01/17 08:42:28;;;;;;;;;;;;;;;15.69;40.43;101123.88;5056557;28;1914;-54
2024/01/17 08:44:54;;;;;;;;;;;;;;;17.50;36.70;101123.13;5055761;28;1843;-54
2024/01/17 08:47:19;;;;;;;;;;;;;;;16.55;38.64;101108.41;5053418;28;1232;-55
2024/01/17 08:49:45;;;;;;;;;;;;;;;15.94;39.88;101103.31;5050978;28;1416;-58
2024/01/17 08:52:10;;;;;;;;;;;;;;;15.76;40.36;101112.72;5063417;28;1123;-51
2024/01/17 08:54:36;;;;;;;;;;;;;;;15.54;40.58;101100.72;5044820;28;1283;-55
2024/01/17 08:57:02;;;;;;;;;;;;;;;16.72;38.55;101105.50;5046343;28;1330;-48
2024/01/17 08:59:28;;;;;;;;;;;;;;;16.68;38.33;101105.19;5050641;28;1084;-55
2024/01/17 09:01:56;;;;;;;;;;;;;;;16.08;39.52;101099.84;5055808;28;1971;-55
2024/01/17 09:04:22;;;;;;;;;;;;;;;15.70;40.29;101087.16;5055025;28;1013;-52
2024/01/17 09:06:47;;;;;;;;;;;;;;;15.54;40.57;101083.44;5055031;28;1016;-54
2024/01/17 09:09:13;;;;;;;;;;;;;;;17.05;37.75;101090.53;5054806;28;1040;-54
2024/01/17 09:11:39;;;;;;;;;;;;;;;17.06;37.61;101088.63;5055103;28;978;-52
2024/01/17 09:14:05;;;;;;;;;;;;;;;16.07;39.35;101076.25;5063187;28;1798;-48
2024/01/17 09:16:31;;;;;;;;;;;;;;;17.58;36.43;101073.91;5043692;28;1030;-54
2024/01/17 09:18:56;;;;;;;;;;;;;;;16.57;38.50;101063.13;5055785;28;1064;-55
2024/01/17 09:21:22;;;;;;;;;;;;;;;16.14;39.39;101075.19;5055402;28;1969;-54
2024/01/17 09:23:48;;;;;;;;;;;;;;;17.80;36.18;101067.34;5038022;28;1060;-54
2024/01/17 09:26:13;;;;;;;;;;;;;;;16.52;38.47;101065.00;5053296;28;1247;-58
2024/01/17 09:28:39;;;;;;;;;;;;;;;16.08;39.52;101066.91;5041015;28;1434;-59
2024/01/17 09:31:04;;;;;;;;;;;;;;;15.97;39.92;101064.38;5055707;28;1072;-57
2024/01/17 09:33:30;;;;;;;;;;;;;;;17.76;36.12;101064.31;5052874;28;1110;-57
2024/01/17 09:35:56;;;;;;;;;;;;;;;16.43;38.81;101056.47;5047675;28;1345;-60
2024/01/17 09:38:22;;;;;;;;;;;;;;;15.93;39.92;101055.03;5044794;28;1183;-57
2024/01/17 09:40:49;;;;;;;;;;;;;;;15.85;40.03;101056.31;5050598;28;1328;-56
2024/01/17 09:43:17;;;;;;;;;;;;;;;16.07;39.79;101048.84;5043933;28;2318;-59
2024/01/17 09:45:43;;;;;;;;;;;;;;;17.49;36.75;101038.97;5051560;28;1044;-66
2024/01/17 09:48:12;;;;;;;;;;;;;;;16.22;39.07;101028.06;5029298;28;1329;-60
2024/01/17 09:50:38;;;;;;;;;;;;;;;15.80;40.14;101021.47;5052968;28;1021;-57
2024/01/17 09:53:04;;;;;;;;;;;;;;;15.56;40.52;101015.50;5040672;28;1381;-57
2024/01/17 09:55:30;;;;;;;;;;;;;;;15.57;40.63;101006.16;5046132;28;1239;-62
2024/01/17 09:57:58;;;;;;;;;;;;;;;17.37;37.18;101015.31;5055184;28;1083;-62
2024/01/17 10:00:25;;;;;;;;;;;;;;;16.49;38.66;101008.72;5050619;28;1106;-60
2024/01/17 10:02:51;;;;;;;;;;;;;;;15.95;39.91;101001.56;5032998;28;1906;-59
2024/01/17 10:05:16;;;;;;;;;;;;;;;16.87;38.26;100997.59;5050166;28;1060;-59
2024/01/17 10:07:44;;;;;;;;;;;;;;;16.76;38.00;100994.84;5045813;28;1568;-59
2024/01/17 10:10:09;;;;;;;;;;;;;;;16.03;39.55;100981.88;5051245;28;1122;-58
2024/01/17 10:12:37;;;;;;;;;;;;;;;15.70;40.36;100967.34;5053171;28;1352;-59
2024/01/17 10:15:06;;;;;;;;;;;;;;;16.11;39.79;100966.00;5050154;28;1838;-58
2024/01/17 10:17:35;;;;;;;;;;;;;;;17.74;36.17;100955.66;5057264;28;937;-65
2024/01/17 10:20:01;;;;;;;;;;;;;;;16.51;38.75;100959.88;5058952;28;1119;-61
2024/01/17 10:22:27;;;;;;;;;;;;;;;15.99;39.68;100953.31;5051019;28;1969;-57
2024/01/17 10:24:52;;;;;;;;;;;;;;;16.49;38.94;100944.78;5057242;28;929;-58
2024/01/17 10:27:18;;;;;;;;;;;;;;;16.99;37.51;100929.56;5058429;28;1135;-57
2024/01/17 10:29:43;;;;;;;;;;;;;;;16.14;39.42;100932.53;5058344;28;1167;-59
2024/01/17 10:32:09;;;;;;;;;;;;;;;15.79;39.94;100937.53;5058069;28;1020;-57
2024/01/17 10:34:36;;;;;;;;;;;;;;;15.54;40.42;100924.47;5057349;28;1530;-57
2024/01/17 10:37:05;;;;;;;;;;;;;;;15.37;41.02;100936.38;5058708;28;1067;-55
2024/01/17 10:39:31;;;;;;;;;;;;;;;17.22;37.40;100924.63;5058553;28;1122;-56
2024/01/17 10:41:59;;;;;;;;;;;;;;;17.25;36.82;100929.56;5058854;28;1967;-54
2024/01/17 10:44:30;;;;;;;;;;;;;;;16.20;39.08;100924.06;5056737;28;2425;-54
2024/01/17 10:46:56;;;;;;;;;;;;;;;15.80;40.27;100921.94;5058148;28;1080;-57
2024/01/17 10:49:22;;;;;;;;;;;;;;;17.30;37.25;100910.34;5050595;28;1308;-57
2024/01/17 10:51:58;;;;;;;;;;;;;;;16.92;37.88;100912.50;5055704;28;1152;-54
2024/01/17 10:54:27;;;;;;;;;;;;;;;16.18;39.38;100917.19;5051551;28;988;-52
2024/01/17 10:56:54;;;;;;;;;;;;;;;15.85;40.04;100903.59;5046173;28;1287;-57
2024/01/17 10:59:19;;;;;;;;;;;;;;;16.32;39.49;100907.38;5042191;28;1528;-56
2024/01/17 11:01:45;;;;;;;;;;;;;;;17.27;37.19;100903.47;5063330;28;1906;-58
2024/01/17 11:04:15;;;;;;;;;;;;;;;16.20;39.29;100898.53;5036636;28;1382;-57
2024/01/17 11:06:40;;;;;;;;;;;;;;;15.81;40.19;100894.25;5040013;28;1115;-55
2024/01/17 11:09:06;;;;;;;;;;;;;;;17.04;37.91;100885.63;5040541;28;1167;-58
2024/01/17 11:11:32;;;;;;;;;;;;;;;16.72;38.13;100878.41;5038964;28;1147;-56
2024/01/17 11:13:57;;;;;;;;;;;;;;;16.95;38.08;100865.25;5048432;28;2436;-55
2024/01/17 11:16:23;;;;;;;;;;;;;;;18.22;35.58;100864.50;5022174;28;1358;-58
2024/01/17 11:18:49;;;;;;;;;;;;;;;16.73;38.34;100862.72;5038801;28;1387;-57
2024/01/17 11:21:15;;;;;;;;;;;;;;;16.20;39.39;100860.13;5057001;28;1075;-59
2024/01/17 11:23:52;;;;;;;;;;;;;;;17.48;36.95;100851.22;5034997;28;1902;-58
2024/01/17 11:26:23;;;;;;;;;;;;;;;16.42;38.93;100849.78;5057323;28;1215;-58
2024/01/17 11:29:07;;;;;;;;;;;;;;;15.94;40.20;100853.75;5057593;28;1151;-59
2024/01/17 11:31:36;;;;;;;;;;;;;;;15.63;40.87;100856.28;5053876;28;1544;-52
2024/01/17 11:34:01;;;;;;;;;;;;;;;15.42;43.06;100852.56;5038490;28;1162;-51
2024/01/17 11:36:40;;;;;;;;;;;;;;;16.65;41.55;100855.88;5054097;28;1007;-57
2024/01/17 11:39:06;;;;;;;;;;;;;;;15.66;43.82;100850.28;5056743;28;854;-60
2024/01/17 11:41:33;;;;;;;;;;;;;;;15.90;43.53;100846.03;5053220;28;1934;-55
2024/01/17 11:43:59;;;;;;;;;;;;;;;17.67;40.20;100848.72;5057779;28;2446;-50
2024/01/17 11:46:24;;;;;;;;;;;;;;;16.50;42.39;100842.13;5055881;28;1075;-53
2024/01/17 11:48:50;;;;;;;;;;;;;;;17.28;40.86;100836.41;5052226;28;1162;-57
2024/01/17 11:51:18;;;;;;;;;;;;;;;17.49;40.50;100828.13;5037964;28;1015;-58
2024/01/17 11:53:50;;;;;;;;;;;;;;;16.54;42.41;100829.50;5043513;28;1086;-50
2024/01/17 11:56:17;;;;;;;;;;;;;;;17.67;40.40;100818.47;5053465;28;1324;-53
2024/01/17 11:58:42;;;;;;;;;;;;;;;17.26;40.75;100815.78;5056147;28;1199;-53
2024/01/17 12:01:12;;;;;;;;;;;;;;;16.50;42.65;100820.16;5056083;28;1004;-53
2024/01/17 12:03:39;;;;;;;;;;;;;;;16.13;43.48;100818.41;5056070;28;1976;-55
2024/01/17 12:06:05;;;;;;;;;;;;;;;17.73;39.69;100820.06;5049120;28;1148;-54
2024/01/17 12:08:31;;;;;;;;;;;;;;;16.50;42.23;100814.66;5037308;28;1036;-56
2024/01/17 12:10:56;;;;;;;;;;;;;;;16.16;43.08;100805.00;5022320;28;1330;-57
2024/01/17 12:13:23;;;;;;;;;;;;;;;15.85;43.51;100810.38;5047576;28;2469;-58
2024/01/17 12:15:54;;;;;;;;;;;;;;;16.74;41.91;100824.00;5032165;28;1381;-58
2024/01/17 12:18:21;;;;;;;;;;;;;;;17.23;40.62;100808.09;5047647;28;1548;-57
2024/01/17 12:20:49;;;;;;;;;;;;;;;16.24;42.75;100814.59;5045061;28;1134;-56
2024/01/17 12:23:16;;;;;;;;;;;;;;;15.88;43.33;100817.25;5043531;28;1902;-60
2024/01/17 12:25:42;;;;;;;;;;;;;;;17.60;39.89;100813.25;5046844;28;1150;-60
2024/01/17 12:28:09;;;;;;;;;;;;;;;16.98;41.31;100809.78;5041906;28;1104;-54
2024/01/17 12:30:35;;;;;;;;;;;;;;;16.69;41.87;100813.06;5056010;28;1368;-57
2024/01/17 12:33:00;;;;;;;;;;;;;;;18.30;38.57;100808.84;5055900;28;1228;-58
2024/01/17 12:35:26;;;;;;;;;;;;;;;17.09;40.75;100814.16;5052393;28;1363;-59
2024/01/17 12:37:52;;;;;;;;;;;;;;;16.54;42.16;100821.28;5053395;28;1309;-57
2024/01/17 12:40:17;;;;;;;;;;;;;;;16.19;42.53;100814.59;5053388;28;1423;-59
2024/01/17 12:42:47;;;;;;;;;;;;;;;15.99;43.00;100810.69;5056101;28;1989;-62